createdAt,value
2023-02-15T00:00:11.844Z,7.46
2023-02-15T00:02:40.344Z,7.50
2023-02-15T00:05:09.250Z,7.36
2023-02-15T00:07:36.806Z,7.35
2023-02-15T00:10:04.343Z,7.25
2023-02-15T00:12:31.771Z,7.24
2023-02-15T00:14:59.062Z,7.22
2023-02-15T00:17:28.902Z,7.19
2023-02-15T00:19:56.335Z,7.26
2023-02-15T00:22:23.728Z,7.17
2023-02-15T00:24:51.274Z,7.23
2023-02-15T00:27:18.773Z,7.36
2023-02-15T00:29:47.642Z,7.59
2023-02-15T00:32:15.215Z,7.43
2023-02-15T00:34:42.469Z,7.33
2023-02-15T00:37:09.814Z,7.36
2023-02-15T00:39:37.084Z,7.24
2023-02-15T00:42:04.399Z,7.33
2023-02-15T00:44:31.735Z,7.33
2023-02-15T00:46:59.236Z,7.35
2023-02-15T00:49:26.694Z,7.35
2023-02-15T00:51:55.191Z,7.26
2023-02-15T00:54:22.807Z,7.25
2023-02-15T00:56:51.028Z,7.16
2023-02-15T00:59:18.350Z,7.13
2023-02-15T01:01:45.735Z,7.13
2023-02-15T01:04:13.398Z,7.04
2023-02-15T01:06:40.845Z,7.14
2023-02-15T01:09:08.259Z,7.25
2023-02-15T01:11:38.048Z,7.14
2023-02-15T01:14:06.533Z,7.00
2023-02-15T01:16:34.113Z,7.10
2023-02-15T01:19:03.718Z,7.28
2023-02-15T01:21:35.465Z,7.32
2023-02-15T01:24:04.107Z,7.24
2023-02-15T01:26:31.592Z,7.23
2023-02-15T01:28:59.752Z,7.19
2023-02-15T01:31:27.134Z,7.21
2023-02-15T01:33:54.722Z,7.28
2023-02-15T01:36:22.125Z,7.26
2023-02-15T01:38:50.443Z,7.39
2023-02-15T01:41:30.650Z,7.29
2023-02-15T01:44:00.714Z,7.13
2023-02-15T01:46:48.510Z,7.18
2023-02-15T01:49:20.716Z,7.21
2023-02-15T01:51:53.598Z,7.11
2023-02-15T01:54:48.512Z,7.02
2023-02-15T01:57:21.549Z,7.08
2023-02-15T01:59:54.782Z,6.96
2023-02-15T02:02:25.442Z,6.94
2023-02-15T02:04:59.198Z,6.95
2023-02-15T02:07:33.685Z,7.00
2023-02-15T02:10:02.251Z,7.06
2023-02-15T02:12:30.866Z,7.09
2023-02-15T02:14:59.543Z,7.04
2023-02-15T02:17:51.772Z,6.86
2023-02-15T02:20:43.727Z,6.89
2023-02-15T02:23:31.577Z,6.81
2023-02-15T02:26:19.243Z,6.97
2023-02-15T02:28:55.670Z,6.83
2023-02-15T02:31:46.028Z,6.81
2023-02-15T02:34:55.293Z,6.80
2023-02-15T02:37:44.733Z,6.75
2023-02-15T02:40:29.840Z,6.93
2023-02-15T02:43:26.849Z,6.94
2023-02-15T02:46:00.493Z,6.84
2023-02-15T02:48:33.328Z,6.68
2023-02-15T02:51:01.153Z,6.63
2023-02-15T02:53:31.240Z,6.55
2023-02-15T02:56:13.785Z,6.57
2023-02-15T02:58:51.277Z,6.74
2023-02-15T03:01:25.852Z,6.72
2023-02-15T03:04:02.218Z,6.72
2023-02-15T03:06:37.119Z,6.78
2023-02-15T03:09:44.157Z,6.57
2023-02-15T03:12:31.119Z,6.67
2023-02-15T03:15:07.091Z,6.75
2023-02-15T03:17:37.702Z,6.69
2023-02-15T03:20:15.200Z,6.69
2023-02-15T03:23:04.454Z,6.59
2023-02-15T03:25:35.335Z,6.71
2023-02-15T03:28:09.044Z,6.62
2023-02-15T03:30:38.950Z,6.62
2023-02-15T03:33:08.325Z,6.59
2023-02-15T03:35:50.249Z,6.49
2023-02-15T03:38:26.872Z,6.40
2023-02-15T03:41:12.583Z,6.50
2023-02-15T03:44:01.034Z,6.51
2023-02-15T03:46:44.661Z,6.38
2023-02-15T03:49:20.111Z,6.34
2023-02-15T03:51:50.166Z,6.39
2023-02-15T03:54:44.855Z,6.50
2023-02-15T03:57:36.356Z,6.64
2023-02-15T04:00:45.631Z,6.56
2023-02-15T04:03:15.938Z,6.51
2023-02-15T04:05:45.374Z,6.38
2023-02-15T04:08:13.473Z,6.28
2023-02-15T04:10:53.918Z,6.50
2023-02-15T04:13:23.065Z,6.40
2023-02-15T04:16:07.654Z,6.27
2023-02-15T04:18:58.296Z,6.22
2023-02-15T04:21:46.385Z,6.16
2023-02-15T04:24:33.050Z,6.12
2023-02-15T04:27:01.053Z,6.04
2023-02-15T04:29:29.247Z,6.04
2023-02-15T04:32:01.190Z,6.11
2023-02-15T04:34:28.780Z,6.01
2023-02-15T04:36:56.154Z,6.02
2023-02-15T04:39:23.717Z,6.15
2023-02-15T04:41:51.180Z,6.01
2023-02-15T04:44:18.590Z,6.15
2023-02-15T04:46:45.861Z,6.16
2023-02-15T04:49:13.397Z,6.09
2023-02-15T04:51:40.794Z,5.98
2023-02-15T04:54:08.301Z,6.10
2023-02-15T04:56:36.018Z,6.17
2023-02-15T04:59:03.471Z,6.08
2023-02-15T05:01:30.778Z,5.99
2023-02-15T05:03:58.451Z,5.89
2023-02-15T05:06:26.000Z,5.78
2023-02-15T05:08:53.479Z,5.67
2023-02-15T05:11:21.131Z,5.70
2023-02-15T05:13:48.454Z,5.71
2023-02-15T05:16:15.696Z,5.72
2023-02-15T05:18:43.158Z,5.66
2023-02-15T05:21:10.716Z,5.69
2023-02-15T05:23:38.342Z,5.72
2023-02-15T05:26:24.592Z,5.75
2023-02-15T05:28:52.170Z,5.65
2023-02-15T05:31:20.400Z,5.61
2023-02-15T05:33:48.069Z,5.77
2023-02-15T05:36:15.410Z,5.84
2023-02-15T05:38:42.998Z,5.90
2023-02-15T05:41:11.768Z,5.77
2023-02-15T05:43:40.049Z,5.77
2023-02-15T05:46:07.980Z,5.74
2023-02-15T05:48:36.303Z,5.81
2023-02-15T05:51:04.964Z,5.84
2023-02-15T05:53:34.586Z,5.91
2023-02-15T05:56:03.759Z,5.85
2023-02-15T05:58:34.572Z,5.84
2023-02-15T06:01:09.733Z,5.85
2023-02-15T06:03:37.488Z,5.88
2023-02-15T06:06:05.686Z,5.85
2023-02-15T06:08:34.482Z,5.92
2023-02-15T06:11:01.895Z,5.95
2023-02-15T06:13:29.651Z,5.96
2023-02-15T06:15:57.175Z,5.92
2023-02-15T06:18:24.756Z,5.80
2023-02-15T06:20:52.260Z,5.77
2023-02-15T06:23:19.756Z,5.86
2023-02-15T06:25:47.787Z,5.96
2023-02-15T06:28:15.441Z,5.84
2023-02-15T06:30:43.155Z,5.82
2023-02-15T06:33:10.655Z,5.96
2023-02-15T06:35:38.016Z,6.07
2023-02-15T06:38:05.489Z,5.88
2023-02-15T06:40:32.921Z,5.96
2023-02-15T06:43:00.252Z,5.89
2023-02-15T06:45:27.533Z,6.04
2023-02-15T06:47:54.902Z,5.89
2023-02-15T06:50:22.082Z,5.75
2023-02-15T06:52:49.389Z,5.89
2023-02-15T06:55:16.885Z,5.84
2023-02-15T06:57:44.253Z,5.94
2023-02-15T07:00:11.912Z,5.76
2023-02-15T07:02:39.259Z,5.67
2023-02-15T07:05:06.692Z,5.70
2023-02-15T07:07:34.105Z,5.70
2023-02-15T07:10:01.856Z,5.70
2023-02-15T07:12:45.385Z,5.77
2023-02-15T07:15:16.789Z,5.79
2023-02-15T07:17:45.010Z,5.84
2023-02-15T07:20:16.111Z,5.78
2023-02-15T07:22:44.057Z,5.70
2023-02-15T07:25:12.668Z,5.61
2023-02-15T07:27:41.300Z,5.62
2023-02-15T07:30:11.702Z,5.51
2023-02-15T07:32:59.323Z,5.54
2023-02-15T07:35:26.979Z,5.54
2023-02-15T07:37:55.555Z,5.53
2023-02-15T07:40:24.510Z,5.53
2023-02-15T07:42:56.010Z,5.67
2023-02-15T07:45:23.611Z,5.54
2023-02-15T07:47:51.117Z,5.48
2023-02-15T07:50:18.477Z,5.56
2023-02-15T07:52:45.877Z,5.64
2023-02-15T07:55:14.051Z,5.79
2023-02-15T07:57:49.330Z,5.82
2023-02-15T08:00:19.321Z,6.05
2023-02-15T08:03:14.319Z,6.16
2023-02-15T08:05:44.130Z,6.61
2023-02-15T08:08:31.513Z,6.99
2023-02-15T08:11:41.962Z,7.50
2023-02-15T08:14:16.456Z,7.99
2023-02-15T08:17:00.651Z,8.31
2023-02-15T08:19:30.162Z,8.60
2023-02-15T08:22:00.196Z,8.92
2023-02-15T08:24:33.645Z,9.25
2023-02-15T08:27:06.096Z,9.49
2023-02-15T08:29:35.710Z,9.82
2023-02-15T08:32:07.438Z,10.19
2023-02-15T08:34:37.933Z,10.47
2023-02-15T08:37:07.169Z,10.88
2023-02-15T08:39:35.161Z,11.28
2023-02-15T08:42:02.716Z,11.43
2023-02-15T08:44:30.740Z,11.57
2023-02-15T08:47:03.838Z,11.80
2023-02-15T08:49:31.847Z,11.94
2023-02-15T08:51:59.353Z,12.02
2023-02-15T08:54:26.815Z,12.30
2023-02-15T08:56:54.176Z,12.46
2023-02-15T08:59:24.028Z,12.53
2023-02-15T09:01:53.934Z,12.44
2023-02-15T09:04:23.896Z,12.32
2023-02-15T09:06:53.451Z,12.25
2023-02-15T09:09:21.578Z,12.31
2023-02-15T09:11:56.759Z,12.55
2023-02-15T09:14:27.968Z,12.74
2023-02-15T09:16:56.175Z,12.97
2023-02-15T09:19:24.857Z,13.15
2023-02-15T09:21:52.826Z,13.21
2023-02-15T09:24:20.549Z,13.35
2023-02-15T09:26:49.601Z,13.51
2023-02-15T09:29:19.184Z,13.74
2023-02-15T09:31:49.902Z,13.92
2023-02-15T09:34:20.751Z,13.92
2023-02-15T09:36:49.359Z,13.98
2023-02-15T09:39:18.221Z,13.94
2023-02-15T09:41:51.529Z,13.89
2023-02-15T09:44:25.123Z,13.99
2023-02-15T09:47:10.894Z,14.24
2023-02-15T09:49:38.306Z,14.55
2023-02-15T09:52:05.696Z,14.88
2023-02-15T09:55:02.415Z,15.23
2023-02-15T09:57:55.678Z,15.51
2023-02-15T10:00:47.120Z,15.50
2023-02-15T10:03:32.489Z,15.57
2023-02-15T10:06:30.936Z,15.64
2023-02-15T10:09:18.187Z,15.75
2023-02-15T10:11:53.555Z,15.99
2023-02-15T10:14:42.610Z,16.03
2023-02-15T10:17:35.157Z,16.12
2023-02-15T10:20:14.602Z,16.23
2023-02-15T10:22:59.714Z,16.41
2023-02-15T10:25:48.108Z,16.50
2023-02-15T10:28:27.841Z,16.49
2023-02-15T10:31:14.103Z,16.69
2023-02-15T10:33:44.409Z,16.80
2023-02-15T10:36:18.199Z,16.91
2023-02-15T10:39:03.288Z,16.93
2023-02-15T10:41:49.973Z,16.88
2023-02-15T10:44:29.111Z,16.88
2023-02-15T10:47:09.675Z,16.80
2023-02-15T10:49:48.170Z,16.76
2023-02-15T10:52:34.915Z,16.60
2023-02-15T10:55:13.721Z,16.67
2023-02-15T10:58:22.875Z,16.62
2023-02-15T11:01:10.044Z,16.76
2023-02-15T11:04:03.658Z,16.93
2023-02-15T11:06:33.761Z,17.01
2023-02-15T11:09:05.635Z,17.12
2023-02-15T11:11:44.433Z,17.21
2023-02-15T11:14:11.835Z,17.21
2023-02-15T11:16:45.396Z,17.12
2023-02-15T11:19:42.456Z,17.03
2023-02-15T11:22:11.778Z,17.14
2023-02-15T11:24:44.408Z,17.12
2023-02-15T11:27:22.804Z,17.07
2023-02-15T11:30:10.458Z,17.08
2023-02-15T11:32:45.475Z,17.12
2023-02-15T11:35:15.900Z,17.14
2023-02-15T11:38:11.254Z,17.21
2023-02-15T11:41:15.404Z,17.25
2023-02-15T11:44:09.182Z,17.37
2023-02-15T11:46:38.325Z,17.38
2023-02-15T11:49:24.305Z,17.33
2023-02-15T11:51:54.353Z,17.24
2023-02-15T11:54:28.136Z,17.14
2023-02-15T11:56:59.328Z,16.98
2023-02-15T11:59:36.032Z,17.02
2023-02-15T12:02:03.912Z,16.92
2023-02-15T12:04:37.873Z,17.03
2023-02-15T12:07:37.520Z,16.97
2023-02-15T12:10:15.266Z,17.14
2023-02-15T12:12:43.144Z,17.03
2023-02-15T12:15:15.280Z,16.85
2023-02-15T12:17:52.451Z,16.79
2023-02-15T12:20:19.866Z,16.54
2023-02-15T12:23:03.721Z,16.54
2023-02-15T12:25:38.782Z,16.72
2023-02-15T12:28:23.560Z,16.68
2023-02-15T12:30:53.624Z,16.67
2023-02-15T12:33:37.476Z,16.67
2023-02-15T12:36:12.580Z,16.72
2023-02-15T12:38:40.153Z,16.76
2023-02-15T12:41:26.129Z,16.81
2023-02-15T12:44:17.736Z,16.68
2023-02-15T12:46:57.176Z,16.58
2023-02-15T12:49:25.488Z,16.73
2023-02-15T12:51:55.765Z,16.81
2023-02-15T12:54:35.561Z,16.76
2023-02-15T12:57:16.710Z,16.63
2023-02-15T13:00:19.673Z,16.67
2023-02-15T13:02:56.209Z,16.53
2023-02-15T13:05:36.443Z,16.54
2023-02-15T13:08:12.909Z,16.40
2023-02-15T13:10:42.139Z,16.20
2023-02-15T13:13:25.888Z,16.23
2023-02-15T13:15:57.470Z,16.29
2023-02-15T13:18:38.634Z,16.30
2023-02-15T13:21:21.484Z,16.00
2023-02-15T13:23:53.295Z,16.05
2023-02-15T13:26:23.519Z,15.95
2023-02-15T13:29:13.657Z,15.78
2023-02-15T13:31:41.694Z,15.76
2023-02-15T13:34:21.632Z,15.66
2023-02-15T13:36:49.102Z,15.69
2023-02-15T13:39:31.545Z,15.59
2023-02-15T13:42:31.748Z,15.33
2023-02-15T13:45:02.202Z,15.38
2023-02-15T13:47:44.866Z,15.34
2023-02-15T13:50:34.394Z,15.29
2023-02-15T13:53:07.811Z,15.32
2023-02-15T13:55:45.289Z,15.25
2023-02-15T13:58:44.813Z,15.29
2023-02-15T14:01:18.528Z,15.33
2023-02-15T14:03:57.415Z,15.35
2023-02-15T14:06:47.196Z,15.31
2023-02-15T14:09:32.972Z,15.37
2023-02-15T14:12:38.772Z,15.27
2023-02-15T14:15:34.698Z,15.25
2023-02-15T14:18:59.966Z,15.32
2023-02-15T14:21:43.298Z,15.40
2023-02-15T14:24:44.249Z,15.45
2023-02-15T14:27:35.281Z,15.45
2023-02-15T14:30:14.191Z,15.46
2023-02-15T14:32:46.289Z,15.42
2023-02-15T14:35:20.185Z,15.38
2023-02-15T14:37:53.858Z,15.44
2023-02-15T14:41:02.134Z,15.43
2023-02-15T14:43:53.501Z,15.47
2023-02-15T14:46:33.372Z,15.46
2023-02-15T14:49:23.405Z,15.45
2023-02-15T14:51:51.779Z,15.50
2023-02-15T14:54:22.147Z,15.44
2023-02-15T14:57:01.758Z,15.40
2023-02-15T14:59:53.554Z,15.40
2023-02-15T15:02:49.913Z,15.39
2023-02-15T15:05:28.903Z,15.43
2023-02-15T15:07:59.403Z,15.41
2023-02-15T15:10:27.562Z,15.47
2023-02-15T15:12:57.519Z,15.46
2023-02-15T15:15:27.728Z,15.39
2023-02-15T15:18:09.180Z,15.42
2023-02-15T15:20:46.765Z,15.30
2023-02-15T15:23:19.047Z,15.33
2023-02-15T15:25:53.015Z,15.32
2023-02-15T15:28:35.717Z,15.30
2023-02-15T15:31:26.073Z,15.30
2023-02-15T15:34:31.140Z,15.23
2023-02-15T15:37:19.788Z,15.26
2023-02-15T15:40:10.525Z,15.24
2023-02-15T15:43:01.293Z,15.18
2023-02-15T15:45:48.466Z,15.18
2023-02-15T15:48:39.296Z,15.17
2023-02-15T15:51:21.361Z,15.13
2023-02-15T15:53:54.343Z,15.13
2023-02-15T15:56:29.140Z,15.12
2023-02-15T15:59:01.674Z,15.06
2023-02-15T16:01:39.373Z,15.09
2023-02-15T16:04:06.987Z,15.09
2023-02-15T16:06:34.613Z,15.04
2023-02-15T16:09:19.553Z,14.99
2023-02-15T16:11:49.992Z,14.93
2023-02-15T16:14:26.470Z,14.86
2023-02-15T16:16:58.033Z,14.86
2023-02-15T16:19:33.245Z,14.90
2023-02-15T16:22:02.649Z,14.76
2023-02-15T16:24:51.258Z,14.72
2023-02-15T16:27:35.793Z,14.67
2023-02-15T16:30:23.125Z,14.62
2023-02-15T16:32:54.507Z,14.58
2023-02-15T16:35:23.704Z,14.47
2023-02-15T16:37:51.406Z,14.48
2023-02-15T16:40:25.675Z,14.49
2023-02-15T16:42:57.000Z,14.45
2023-02-15T16:45:27.465Z,14.41
2023-02-15T16:47:58.217Z,14.24
2023-02-15T16:50:34.403Z,14.13
2023-02-15T16:53:05.186Z,14.01
2023-02-15T16:55:38.298Z,13.85
2023-02-15T16:58:08.665Z,13.82
2023-02-15T17:00:39.544Z,13.78
2023-02-15T17:03:12.890Z,13.73
2023-02-15T17:05:52.486Z,13.57
2023-02-15T17:08:27.832Z,13.52
2023-02-15T17:11:12.436Z,13.44
2023-02-15T17:13:40.878Z,13.45
2023-02-15T17:16:28.489Z,13.33
2023-02-15T17:18:59.503Z,13.26
2023-02-15T17:21:33.724Z,13.20
2023-02-15T17:24:05.285Z,13.17
2023-02-15T17:26:36.666Z,13.01
2023-02-15T17:29:13.638Z,12.88
2023-02-15T17:31:41.629Z,12.83
2023-02-15T17:34:47.327Z,12.73
2023-02-15T17:37:35.026Z,12.74
2023-02-15T17:40:15.769Z,12.64
2023-02-15T17:42:43.406Z,12.55
2023-02-15T17:45:13.174Z,12.71
2023-02-15T17:47:42.134Z,12.60
2023-02-15T17:50:19.950Z,12.63
2023-02-15T17:52:47.971Z,12.58
2023-02-15T17:55:38.361Z,12.51
2023-02-15T17:58:08.902Z,12.58
2023-02-15T18:01:04.839Z,12.58
2023-02-15T18:04:05.929Z,12.51
2023-02-15T18:06:54.658Z,12.47
2023-02-15T18:09:41.964Z,12.38
2023-02-15T18:12:24.033Z,12.38
2023-02-15T18:14:54.413Z,12.44
2023-02-15T18:17:34.154Z,12.27
2023-02-15T18:20:06.845Z,12.31
2023-02-15T18:22:34.506Z,12.43
2023-02-15T18:25:01.919Z,12.33
2023-02-15T18:27:29.580Z,12.21
2023-02-15T18:29:58.734Z,12.30
2023-02-15T18:32:35.789Z,12.24
2023-02-15T18:35:04.715Z,12.26
2023-02-15T18:37:34.001Z,12.21
2023-02-15T18:40:04.499Z,12.13
2023-02-15T18:42:35.534Z,12.02
2023-02-15T18:45:25.193Z,11.91
2023-02-15T18:47:52.808Z,11.82
2023-02-15T18:50:21.742Z,11.72
2023-02-15T18:52:56.126Z,11.77
2023-02-15T18:55:29.007Z,11.64
2023-02-15T18:57:57.470Z,11.63
2023-02-15T19:00:32.294Z,11.65
2023-02-15T19:03:02.297Z,11.60
2023-02-15T19:05:32.040Z,11.64
2023-02-15T19:08:01.997Z,11.61
2023-02-15T19:10:32.213Z,11.53
2023-02-15T19:12:59.750Z,11.70
2023-02-15T19:15:32.714Z,11.68
2023-02-15T19:18:00.170Z,11.61
2023-02-15T19:20:36.824Z,11.59
2023-02-15T19:23:08.834Z,11.57
2023-02-15T19:25:40.289Z,11.56
2023-02-15T19:28:19.799Z,11.55
2023-02-15T19:30:47.583Z,11.55
2023-02-15T19:33:20.808Z,11.49
2023-02-15T19:35:56.300Z,11.59
2023-02-15T19:38:29.360Z,11.69
2023-02-15T19:41:04.462Z,11.57
2023-02-15T19:43:32.232Z,11.55
2023-02-15T19:45:59.700Z,11.60
2023-02-15T19:48:27.222Z,11.68
2023-02-15T19:50:56.930Z,11.75
2023-02-15T19:53:27.492Z,11.59
2023-02-15T19:55:55.389Z,11.56
2023-02-15T19:58:23.292Z,11.65
2023-02-15T20:00:51.803Z,11.61
2023-02-15T20:03:19.395Z,11.57
2023-02-15T20:05:47.087Z,11.64
2023-02-15T20:08:18.549Z,11.62
2023-02-15T20:10:46.599Z,11.51
2023-02-15T20:13:16.419Z,11.58
2023-02-15T20:15:44.349Z,11.64
2023-02-15T20:18:12.362Z,11.58
2023-02-15T20:20:51.981Z,11.47
2023-02-15T20:23:19.682Z,11.45
2023-02-15T20:25:47.489Z,11.46
2023-02-15T20:28:26.653Z,11.53
2023-02-15T20:30:54.576Z,11.76
2023-02-15T20:33:22.606Z,11.60
2023-02-15T20:35:51.132Z,11.58
2023-02-15T20:38:29.716Z,11.49
2023-02-15T20:41:18.742Z,11.54
2023-02-15T20:43:46.571Z,11.46
2023-02-15T20:46:14.054Z,11.43
2023-02-15T20:48:41.543Z,11.36
2023-02-15T20:51:15.866Z,11.40
2023-02-15T20:53:43.267Z,11.43
2023-02-15T20:56:20.348Z,11.35
2023-02-15T20:58:48.183Z,11.35
2023-02-15T21:01:15.989Z,11.32
2023-02-15T21:03:43.751Z,11.28
2023-02-15T21:06:15.501Z,11.35
2023-02-15T21:08:43.401Z,11.41
2023-02-15T21:11:22.359Z,11.38
2023-02-15T21:13:51.355Z,11.21
2023-02-15T21:16:19.199Z,11.24
2023-02-15T21:18:46.736Z,11.26
2023-02-15T21:21:16.809Z,11.31
2023-02-15T21:23:44.685Z,11.25
2023-02-15T21:26:21.397Z,11.29
2023-02-15T21:28:50.232Z,11.29
2023-02-15T21:31:23.792Z,11.15
2023-02-15T21:33:51.472Z,11.05
2023-02-15T21:36:22.241Z,11.00
2023-02-15T21:38:50.736Z,11.01
2023-02-15T21:41:41.609Z,11.04
2023-02-15T21:44:46.083Z,11.07
2023-02-15T21:47:47.405Z,10.99
2023-02-15T21:50:41.590Z,11.00
2023-02-15T21:53:24.661Z,10.89
2023-02-15T21:55:56.429Z,10.76
2023-02-15T21:58:26.854Z,10.68
2023-02-15T22:00:55.878Z,10.71
2023-02-15T22:03:25.556Z,10.70
2023-02-15T22:05:53.024Z,10.96
2023-02-15T22:08:20.659Z,10.79
2023-02-15T22:10:48.756Z,10.75
2023-02-15T22:13:22.552Z,10.75
2023-02-15T22:15:50.145Z,10.65
2023-02-15T22:18:27.225Z,10.61
2023-02-15T22:20:56.315Z,10.57
2023-02-15T22:23:24.339Z,10.47
2023-02-15T22:26:04.262Z,10.62
2023-02-15T22:28:34.427Z,10.71
2023-02-15T22:31:03.346Z,10.70
2023-02-15T22:33:34.252Z,10.50
2023-02-15T22:36:02.417Z,10.35
2023-02-15T22:38:30.026Z,10.34
2023-02-15T22:41:04.193Z,10.50
2023-02-15T22:43:40.479Z,10.63
2023-02-15T22:46:14.801Z,10.57
2023-02-15T22:48:44.140Z,10.52
2023-02-15T22:51:14.085Z,10.37
2023-02-15T22:53:41.933Z,10.32
2023-02-15T22:56:17.266Z,10.40
2023-02-15T22:58:45.469Z,10.56
2023-02-15T23:01:23.633Z,10.62
2023-02-15T23:03:51.624Z,10.54
2023-02-15T23:06:19.072Z,10.54
2023-02-15T23:08:46.585Z,10.50
2023-02-15T23:11:13.822Z,10.41
2023-02-15T23:13:41.566Z,10.42
2023-02-15T23:16:14.311Z,10.29
2023-02-15T23:18:47.267Z,10.31
2023-02-15T23:21:23.994Z,10.37
2023-02-15T23:23:55.780Z,10.36
2023-02-15T23:26:27.869Z,10.41
2023-02-15T23:28:57.403Z,10.34
2023-02-15T23:31:29.764Z,10.27
2023-02-15T23:33:58.048Z,10.39
2023-02-15T23:36:33.817Z,10.39
2023-02-15T23:39:31.887Z,10.34
2023-02-15T23:42:02.146Z,10.50
2023-02-15T23:44:30.694Z,10.36
2023-02-15T23:46:58.325Z,10.35
2023-02-15T23:49:25.896Z,10.34
2023-02-15T23:51:55.524Z,10.33
2023-02-15T23:54:25.178Z,10.40
2023-02-15T23:57:01.100Z,10.32
2023-02-15T23:59:31.053Z,10.34
